Time;durP1;ratioP1;P1;durP2;ratioP2;P2;SDS_P1;SDS_P2;PMS_P1;PMS_P2;Temp;Humidity;BMP_temperature;BMP_pressure;BME280_temperature;BME280_humidity;BME280_pressure;Samples;Min_cycle;Max_cycle;Signal;HPM_P1;HPM_P2
2021/12/13 00:01:47;;;;;;;28.05;9.35;;;;;;;;;;5047981;28;20542;-57
2021/12/13 00:04:41;;;;;;;32.40;10.32;;;;;;;;;;5049986;28;20526;-58
2021/12/13 00:07:22;;;;;;;23.13;8.05;;;;;;;;;;5047955;28;20041;-66
2021/12/13 00:09:50;;;;;;;43.45;10.18;;;;;;;;;;5049851;28;20435;-66
2021/12/13 00:12:24;;;;;;;35.83;10.48;;;;;;;;;;5048653;28;20547;-62
2021/12/13 00:14:52;;;;;;;27.88;10.82;;;;;;;;;;5048075;28;20045;-61
2021/12/13 00:17:23;;;;;;;33.13;10.43;;;;;;;;;;5047677;28;20257;-64
2021/12/13 00:19:55;;;;;;;26.58;10.32;;;;;;;;;;5030038;28;20441;-63
2021/12/13 00:22:43;;;;;;;39.58;10.60;;;;;;;;;;5057729;28;20614;-66
2021/12/13 00:25:16;;;;;;;31.33;10.07;;;;;;;;;;5050637;28;20041;-64
2021/12/13 00:27:49;;;;;;;32.33;9.38;;;;;;;;;;5049731;28;20134;-65
2021/12/13 00:30:33;;;;;;;29.90;9.20;;;;;;;;;;5042663;28;20036;-65
2021/12/13 00:33:25;;;;;;;26.48;9.70;;;;;;;;;;5051228;28;20032;-64
2021/12/13 00:35:56;;;;;;;49.50;10.95;;;;;;;;;;5053432;28;20492;-63
2021/12/13 00:38:24;;;;;;;30.25;10.20;;;;;;;;;;5054329;28;20500;-63
2021/12/13 00:41:13;;;;;;;35.47;11.23;;;;;;;;;;5051047;28;20518;-64
2021/12/13 00:43:45;;;;;;;30.75;9.63;;;;;;;;;;5052882;28;20029;-61
2021/12/13 00:46:14;;;;;;;32.63;10.32;;;;;;;;;;5053167;28;20071;-64
2021/12/13 00:48:43;;;;;;;43.13;10.50;;;;;;;;;;5053058;28;20017;-64
2021/12/13 00:51:26;;;;;;;29.40;11.30;;;;;;;;;;5053147;28;20384;-60
2021/12/13 00:53:56;;;;;;;43.70;11.90;;;;;;;;;;5052738;28;20025;-62
2021/12/13 00:56:46;;;;;;;48.37;11.40;;;;;;;;;;5052870;28;20041;-64
2021/12/13 00:59:25;;;;;;;34.03;10.10;;;;;;;;;;5052774;28;20258;-62
2021/12/13 01:01:56;;;;;;;26.02;9.05;;;;;;;;;;5042945;28;20037;-65
2021/12/13 01:04:22;;;;;;;21.50;8.95;;;;;;;;;;5048667;28;20025;-65
2021/12/13 01:07:21;;;;;;;24.17;9.82;;;;;;;;;;5041369;28;20378;-58
2021/12/13 01:10:18;;;;;;;27.33;9.05;;;;;;;;;;5052930;28;20111;-64
2021/12/13 01:12:47;;;;;;;26.65;9.00;;;;;;;;;;5059023;28;20064;-65
2021/12/13 01:15:29;;;;;;;30.58;10.38;;;;;;;;;;5048784;28;20067;-65
2021/12/13 01:18:19;;;;;;;42.25;10.82;;;;;;;;;;5053121;28;20073;-64
2021/12/13 01:21:01;;;;;;;29.05;11.60;;;;;;;;;;5052748;28;20025;-65
2021/12/13 01:23:45;;;;;;;31.30;10.40;;;;;;;;;;5052704;28;20048;-64
2021/12/13 01:26:28;;;;;;;31.83;11.52;;;;;;;;;;5052482;28;20021;-65
2021/12/13 01:29:01;;;;;;;29.67;13.05;;;;;;;;;;5043948;28;20033;-66
2021/12/13 01:31:35;;;;;;;32.03;12.30;;;;;;;;;;5052622;28;20053;-65
2021/12/13 01:34:03;;;;;;;30.25;10.90;;;;;;;;;;5042293;28;20080;-65
2021/12/13 01:36:45;;;;;;;31.38;11.15;;;;;;;;;;5052815;28;20059;-65
2021/12/13 01:39:22;;;;;;;24.55;10.82;;;;;;;;;;5052034;28;20025;-63
2021/12/13 01:41:51;;;;;;;22.65;10.52;;;;;;;;;;5051798;28;20045;-61
2021/12/13 01:44:27;;;;;;;24.80;10.23;;;;;;;;;;5051992;28;20356;-65
2021/12/13 01:47:01;;;;;;;23.02;9.15;;;;;;;;;;5052119;28;20049;-65
2021/12/13 01:49:32;;;;;;;24.65;10.18;;;;;;;;;;5052357;28;20029;-66
2021/12/13 01:52:00;;;;;;;20.73;9.40;;;;;;;;;;5052506;28;20475;-65
2021/12/13 01:54:27;;;;;;;22.25;10.57;;;;;;;;;;5052120;28;20100;-66
2021/12/13 01:57:09;;;;;;;24.67;9.95;;;;;;;;;;5052349;28;20480;-65
2021/12/13 01:59:47;;;;;;;21.85;9.23;;;;;;;;;;5052111;28;20476;-65
2021/12/13 02:02:25;;;;;;;25.33;10.40;;;;;;;;;;5052290;28;20029;-65
2021/12/13 02:04:56;;;;;;;21.67;9.57;;;;;;;;;;5047522;28;20033;-63
2021/12/13 02:07:24;;;;;;;22.10;9.70;;;;;;;;;;5052283;28;20057;-64
2021/12/13 02:09:50;;;;;;;25.08;9.40;;;;;;;;;;5051584;28;20043;-60
2021/12/13 02:12:18;;;;;;;20.77;8.88;;;;;;;;;;5051636;28;20021;-63
2021/12/13 02:16:55;;;;;;;23.23;9.40;;;;;;;;;;5052431;28;20368;-65
2021/12/13 02:17:36;;;;;;;21.67;9.15;;;;;;;;;;5052745;28;20441;-65
2021/12/13 02:20:11;;;;;;;20.02;8.43;;;;;;;;;;5051940;28;20025;-65
2021/12/13 02:22:43;;;;;;;19.70;8.57;;;;;;;;;;5050217;28;20107;-65
2021/12/13 02:25:17;;;;;;;21.65;9.68;;;;;;;;;;5052198;28;20127;-63
2021/12/13 02:28:01;;;;;;;23.08;9.98;;;;;;;;;;5052060;28;20033;-65
2021/12/13 02:30:29;;;;;;;22.50;8.85;;;;;;;;;;5052030;28;20379;-65
2021/12/13 02:32:56;;;;;;;22.92;9.45;;;;;;;;;;5052258;28;20051;-65
2021/12/13 02:35:25;;;;;;;19.67;8.77;;;;;;;;;;5052787;28;20434;-65
2021/12/13 02:37:51;;;;;;;18.55;8.95;;;;;;;;;;5051922;28;20112;-64
2021/12/13 02:40:19;;;;;;;25.38;9.38;;;;;;;;;;5051768;28;20062;-63
2021/12/13 02:42:45;;;;;;;20.63;8.82;;;;;;;;;;5051902;28;20100;-65
2021/12/13 02:45:19;;;;;;;19.50;8.45;;;;;;;;;;5051806;28;20032;-65
2021/12/13 02:47:53;;;;;;;20.55;8.15;;;;;;;;;;5052366;28;20040;-65
2021/12/13 02:51:13;;;;;;;20.60;8.00;;;;;;;;;;5052491;28;20024;-64
2021/12/13 02:53:40;;;;;;;17.17;7.70;;;;;;;;;;5033677;28;20045;-64
2021/12/13 02:56:06;;;;;;;19.23;8.60;;;;;;;;;;5016359;28;20087;-64
2021/12/13 02:58:34;;;;;;;17.58;7.90;;;;;;;;;;5034064;28;20065;-65
2021/12/13 03:01:34;;;;;;;17.90;8.20;;;;;;;;;;5033491;28;20034;-61
2021/12/13 03:04:05;;;;;;;16.60;8.07;;;;;;;;;;5022966;28;20041;-61
2021/12/13 03:06:35;;;;;;;17.45;7.35;;;;;;;;;;5033612;28;20112;-64
2021/12/13 03:09:10;;;;;;;16.80;7.80;;;;;;;;;;5033658;28;20026;-65
2021/12/13 03:11:36;;;;;;;17.40;7.18;;;;;;;;;;5027760;28;20061;-64
2021/12/13 03:14:25;;;;;;;19.98;8.38;;;;;;;;;;5033677;28;20067;-65
2021/12/13 03:16:57;;;;;;;17.52;7.82;;;;;;;;;;5020567;28;20034;-64
2021/12/13 03:19:37;;;;;;;18.00;8.30;;;;;;;;;;5031317;28;20032;-65
2021/12/13 03:22:20;;;;;;;19.75;7.88;;;;;;;;;;5033142;28;20030;-65
2021/12/13 03:25:21;;;;;;;17.08;8.07;;;;;;;;;;5043778;28;20119;-63
2021/12/13 03:28:09;;;;;;;18.80;8.45;;;;;;;;;;5033079;28;20025;-65
2021/12/13 03:30:46;;;;;;;18.95;8.30;;;;;;;;;;5033174;28;20476;-64
2021/12/13 03:33:15;;;;;;;16.63;7.75;;;;;;;;;;5033197;28;20035;-63
2021/12/13 03:35:56;;;;;;;20.70;9.23;;;;;;;;;;5033032;28;20133;-65
2021/12/13 03:38:26;;;;;;;18.13;7.90;;;;;;;;;;5033189;28;20589;-63
2021/12/13 03:40:56;;;;;;;16.75;7.43;;;;;;;;;;5021169;28;20389;-65
2021/12/13 03:43:35;;;;;;;15.05;7.68;;;;;;;;;;5032693;28;20439;-64
2021/12/13 03:46:06;;;;;;;16.08;7.82;;;;;;;;;;5021506;28;20029;-64
2021/12/13 03:48:33;;;;;;;;;;;;;;;;;;5029156;28;20079;-61
2021/12/13 03:51:04;;;;;;;16.00;7.63;;;;;;;;;;5032722;28;19917;-63
2021/12/13 03:53:32;;;;;;;18.63;8.52;;;;;;;;;;5033033;28;20044;-65
2021/12/13 03:56:09;;;;;;;16.55;8.10;;;;;;;;;;5032966;28;20497;-62
2021/12/13 03:58:43;;;;;;;18.00;8.15;;;;;;;;;;5032514;28;20030;-60
2021/12/13 04:01:14;;;;;;;19.58;8.55;;;;;;;;;;5033504;28;20056;-58
2021/12/13 04:03:42;;;;;;;16.98;8.65;;;;;;;;;;5054108;28;20029;-60
2021/12/13 04:06:08;;;;;;;19.38;9.60;;;;;;;;;;5054305;28;20021;-58
2021/12/13 04:08:35;;;;;;;18.23;8.30;;;;;;;;;;5054139;28;20025;-58
2021/12/13 04:11:07;;;;;;;18.42;8.32;;;;;;;;;;5054587;28;20036;-59
2021/12/13 04:13:47;;;;;;;17.25;8.05;;;;;;;;;;5054462;28;20021;-60
2021/12/13 04:16:30;;;;;;;18.07;8.60;;;;;;;;;;5054539;28;20031;-60
2021/12/13 04:19:11;;;;;;;19.13;8.50;;;;;;;;;;5054333;28;20258;-61
2021/12/13 04:21:42;;;;;;;18.77;7.93;;;;;;;;;;5054420;28;20032;-58
2021/12/13 04:24:17;;;;;;;27.15;13.10;;;;;;;;;;5053929;28;20024;-59
2021/12/13 04:26:49;;;;;;;17.45;8.63;;;;;;;;;;5042607;28;20021;-58
2021/12/13 04:29:21;;;;;;;17.73;8.13;;;;;;;;;;5054162;28;20017;-57
2021/12/13 04:31:49;;;;;;;18.02;8.30;;;;;;;;;;5054244;28;20476;-58
2021/12/13 04:34:15;;;;;;;16.80;7.82;;;;;;;;;;5053686;28;20032;-56
2021/12/13 04:36:47;;;;;;;18.40;8.02;;;;;;;;;;5054315;28;20029;-60
2021/12/13 04:39:35;;;;;;;18.75;7.90;;;;;;;;;;5054206;28;20067;-59
2021/12/13 04:42:08;;;;;;;19.83;8.30;;;;;;;;;;5053420;28;20514;-58
2021/12/13 04:44:46;;;;;;;18.60;8.32;;;;;;;;;;5048946;28;20028;-58
2021/12/13 04:47:18;;;;;;;18.25;8.05;;;;;;;;;;5054086;28;20029;-58
2021/12/13 04:49:52;;;;;;;19.58;8.20;;;;;;;;;;5053660;28;20021;-65
2021/12/13 04:52:20;;;;;;;20.52;8.85;;;;;;;;;;5053976;28;20029;-63
2021/12/13 04:54:54;;;;;;;18.40;8.18;;;;;;;;;;5053661;28;20021;-66
2021/12/13 04:57:22;;;;;;;20.15;8.30;;;;;;;;;;5054572;28;20117;-65
2021/12/13 04:59:55;;;;;;;17.60;8.05;;;;;;;;;;5053079;28;20021;-63
2021/12/13 05:02:22;;;;;;;17.75;8.65;;;;;;;;;;5051197;28;20020;-65
2021/12/13 05:04:54;;;;;;;18.05;8.35;;;;;;;;;;5053515;28;20114;-64
2021/12/13 05:07:21;;;;;;;17.27;7.75;;;;;;;;;;5053675;28;20028;-61
2021/12/13 05:09:48;;;;;;;17.60;7.78;;;;;;;;;;5052159;28;20028;-64
2021/12/13 05:12:18;;;;;;;20.15;9.10;;;;;;;;;;5053080;28;20908;-60
2021/12/13 05:14:48;;;;;;;17.63;7.50;;;;;;;;;;5053177;28;20541;-63
2021/12/13 05:17:19;;;;;;;17.52;7.95;;;;;;;;;;5053769;28;20361;-64
2021/12/13 05:20:14;;;;;;;22.73;8.90;;;;;;;;;;5053335;28;20104;-64
2021/12/13 05:23:04;;;;;;;22.10;9.00;;;;;;;;;;5051588;28;20499;-62
2021/12/13 05:25:32;;;;;;;;;;;;;;;;;;5053305;28;20037;-62
2021/12/13 05:28:04;;;;;;;22.42;8.68;;;;;;;;;;5053056;28;19913;-62
2021/12/13 05:30:33;;;;;;;19.38;8.80;;;;;;;;;;5053557;28;20040;-60
2021/12/13 05:33:06;;;;;;;19.50;8.77;;;;;;;;;;5053038;28;20052;-63
2021/12/13 05:35:44;;;;;;;20.67;8.90;;;;;;;;;;5052881;28;20111;-62
2021/12/13 05:38:33;;;;;;;17.83;8.20;;;;;;;;;;5052954;28;20104;-62
2021/12/13 05:41:02;;;;;;;22.52;9.20;;;;;;;;;;5051401;28;20538;-65
2021/12/13 05:44:02;;;;;;;20.40;9.57;;;;;;;;;;5044360;28;20112;-65
2021/12/13 05:46:35;;;;;;;17.15;8.23;;;;;;;;;;5042993;28;20037;-61
2021/12/13 05:49:05;;;;;;;17.27;8.07;;;;;;;;;;5052769;28;20044;-59
2021/12/13 05:51:40;;;;;;;19.80;8.48;;;;;;;;;;5052622;28;20047;-63
2021/12/13 05:54:13;;;;;;;22.85;9.90;;;;;;;;;;5052780;28;20059;-60
2021/12/13 05:56:43;;;;;;;23.75;9.10;;;;;;;;;;5053240;28;20025;-58
2021/12/13 05:59:19;;;;;;;25.63;9.38;;;;;;;;;;5052860;28;20082;-64
2021/12/13 06:01:57;;;;;;;19.15;8.60;;;;;;;;;;5052129;28;20068;-59
2021/12/13 06:04:34;;;;;;;22.13;9.70;;;;;;;;;;5052579;28;20064;-58
2021/12/13 06:07:01;;;;;;;20.42;8.82;;;;;;;;;;5052555;28;20021;-61
2021/12/13 06:09:45;;;;;;;18.50;8.30;;;;;;;;;;5052484;28;20029;-60
2021/12/13 06:12:39;;;;;;;19.38;8.30;;;;;;;;;;5050939;28;20044;-58
2021/12/13 06:15:23;;;;;;;19.27;8.40;;;;;;;;;;5063222;28;20037;-59
2021/12/13 06:17:55;;;;;;;19.35;8.48;;;;;;;;;;5048248;28;20037;-59
2021/12/13 06:20:32;;;;;;;19.05;8.90;;;;;;;;;;5051908;28;20452;-60
2021/12/13 06:23:29;;;;;;;19.63;9.02;;;;;;;;;;5052202;28;20491;-60
2021/12/13 06:26:02;;;;;;;18.50;8.43;;;;;;;;;;5052448;28;20044;-59
2021/12/13 06:28:34;;;;;;;19.17;8.40;;;;;;;;;;5056247;28;20028;-58
2021/12/13 06:31:09;;;;;;;19.23;8.60;;;;;;;;;;5055067;28;20029;-59
2021/12/13 06:33:51;;;;;;;22.58;9.30;;;;;;;;;;5056327;28;20037;-59
2021/12/13 06:36:36;;;;;;;19.08;8.07;;;;;;;;;;5056474;28;20013;-61
2021/12/13 06:39:10;;;;;;;22.05;9.50;;;;;;;;;;5056375;28;20040;-59
2021/12/13 06:41:49;;;;;;;22.90;8.57;;;;;;;;;;5056156;28;20102;-58
2021/12/13 06:44:24;;;;;;;21.83;9.25;;;;;;;;;;5055786;28;20067;-58
2021/12/13 06:46:58;;;;;;;20.77;8.48;;;;;;;;;;5056193;28;20025;-58
2021/12/13 06:49:54;;;;;;;21.20;9.00;;;;;;;;;;5055266;28;20484;-58
2021/12/13 06:52:32;;;;;;;20.70;8.88;;;;;;;;;;5057077;28;20063;-59
2021/12/13 06:54:57;;;;;;;20.63;8.85;;;;;;;;;;5056219;28;20043;-62
2021/12/13 06:57:46;;;;;;;19.48;9.00;;;;;;;;;;5054574;28;20119;-61
2021/12/13 07:00:21;;;;;;;21.20;9.88;;;;;;;;;;5053073;28;20051;-63
2021/12/13 07:03:00;;;;;;;24.42;11.18;;;;;;;;;;5056053;28;20036;-65
2021/12/13 07:05:45;;;;;;;25.08;11.52;;;;;;;;;;5055343;28;20397;-61
2021/12/13 07:08:31;;;;;;;23.77;11.13;;;;;;;;;;5055658;28;20455;-60
2021/12/13 07:11:05;;;;;;;23.38;10.52;;;;;;;;;;5055341;28;20369;-59
2021/12/13 07:13:48;;;;;;;23.63;10.55;;;;;;;;;;5055277;28;20029;-65
2021/12/13 07:16:20;;;;;;;30.00;12.35;;;;;;;;;;5055367;28;20025;-63
2021/12/13 07:19:02;;;;;;;26.90;11.52;;;;;;;;;;5055387;28;20056;-61
2021/12/13 07:21:40;;;;;;;34.53;14.25;;;;;;;;;;5055079;28;20067;-64
2021/12/13 07:24:12;;;;;;;34.40;14.15;;;;;;;;;;5054607;28;20033;-61
2021/12/13 07:26:54;;;;;;;39.40;16.77;;;;;;;;;;5052385;28;20484;-59
2021/12/13 07:29:29;;;;;;;27.77;14.05;;;;;;;;;;5054992;28;20071;-63
2021/12/13 07:32:09;;;;;;;36.65;14.35;;;;;;;;;;5056262;28;20391;-58
2021/12/13 07:34:58;;;;;;;25.85;11.32;;;;;;;;;;5046290;28;20020;-63
2021/12/13 07:37:42;;;;;;;19.27;9.55;;;;;;;;;;5047043;28;20033;-58
2021/12/13 07:40:26;;;;;;;19.88;9.63;;;;;;;;;;5054930;28;20045;-61
2021/12/13 07:42:57;;;;;;;23.42;10.15;;;;;;;;;;5054647;28;20025;-62
2021/12/13 07:45:31;;;;;;;25.25;14.05;;;;;;;;;;5054814;28;20028;-58
2021/12/13 07:48:03;;;;;;;21.65;10.85;;;;;;;;;;5054654;28;20036;-64
2021/12/13 07:50:29;;;;;;;22.75;11.35;;;;;;;;;;5054629;28;20024;-63
2021/12/13 07:52:59;;;;;;;28.08;13.00;;;;;;;;;;5055564;28;20108;-64
2021/12/13 07:55:29;;;;;;;22.27;10.70;;;;;;;;;;5053005;28;20037;-59
2021/12/13 07:57:58;;;;;;;45.88;19.85;;;;;;;;;;5054877;28;20499;-61
2021/12/13 08:00:37;;;;;;;46.63;20.60;;;;;;;;;;5044669;28;20671;-65
2021/12/13 08:03:12;;;;;;;46.15;20.52;;;;;;;;;;5053886;28;20345;-65
2021/12/13 08:05:43;;;;;;;39.70;18.63;;;;;;;;;;5052312;28;20034;-61
2021/12/13 08:08:18;;;;;;;36.50;18.33;;;;;;;;;;5049207;28;20029;-61
2021/12/13 08:10:46;;;;;;;41.25;18.58;;;;;;;;;;5052325;28;20032;-61
2021/12/13 08:13:20;;;;;;;44.30;20.23;;;;;;;;;;5046508;28;20041;-65
2021/12/13 08:15:53;;;;;;;37.30;16.17;;;;;;;;;;5048068;28;20033;-63
2021/12/13 08:18:30;;;;;;;32.90;16.20;;;;;;;;;;5054290;28;20369;-58
2021/12/13 08:21:01;;;;;;;40.20;19.85;;;;;;;;;;5048445;28;20040;-58
2021/12/13 08:23:47;;;;;;;29.85;14.90;;;;;;;;;;5068313;28;20033;-59
2021/12/13 08:26:17;;;;;;;30.40;15.77;;;;;;;;;;5053695;28;20044;-60
2021/12/13 08:28:47;;;;;;;26.30;14.35;;;;;;;;;;5045326;28;20017;-65
2021/12/13 08:31:25;;;;;;;32.40;14.45;;;;;;;;;;5061504;28;20037;-65
2021/12/13 08:33:59;;;;;;;43.20;19.27;;;;;;;;;;5059680;28;20028;-64
2021/12/13 08:36:24;;;;;;;49.08;22.00;;;;;;;;;;5052059;28;20033;-63
2021/12/13 08:39:19;;;;;;;66.00;28.00;;;;;;;;;;5053746;28;20115;-67
2021/12/13 08:41:49;;;;;;;45.40;22.67;;;;;;;;;;5047982;28;20075;-65
2021/12/13 08:44:29;;;;;;;42.85;21.05;;;;;;;;;;5044889;28;20037;-62
2021/12/13 08:46:57;;;;;;;;;;;;;;;;;;5048002;28;20496;-65
2021/12/13 08:49:29;;;;;;;62.03;25.50;;;;;;;;;;5047820;28;20394;-62
2021/12/13 08:52:15;;;;;;;54.35;25.23;;;;;;;;;;5053150;28;20025;-65
2021/12/13 08:54:58;;;;;;;53.50;25.20;;;;;;;;;;5050183;28;20454;-65
2021/12/13 08:57:32;;;;;;;54.42;27.13;;;;;;;;;;5061615;28;20119;-65
2021/12/13 09:00:01;;;;;;;49.50;26.80;;;;;;;;;;5056481;28;20514;-61
2021/12/13 09:02:30;;;;;;;54.58;27.63;;;;;;;;;;5053585;28;20033;-65
2021/12/13 09:05:03;;;;;;;54.53;26.95;;;;;;;;;;5053115;28;20479;-67
2021/12/13 09:07:28;;;;;;;56.60;26.95;;;;;;;;;;5051770;28;20546;-65
2021/12/13 09:09:55;;;;;;;53.42;25.33;;;;;;;;;;5052800;28;20050;-63
2021/12/13 09:12:42;;;;;;;34.50;17.05;;;;;;;;;;5054091;28;20060;-64
2021/12/13 09:15:22;;;;;;;37.90;20.35;;;;;;;;;;5053315;28;20108;-63
2021/12/13 09:17:50;;;;;;;40.10;19.35;;;;;;;;;;5053220;28;20076;-64
2021/12/13 09:20:28;;;;;;;36.83;17.80;;;;;;;;;;5053301;28;20063;-64
2021/12/13 09:23:19;;;;;;;33.58;14.68;;;;;;;;;;5052932;28;20017;-64
2021/12/13 09:26:16;;;;;;;26.02;13.60;;;;;;;;;;5052930;28;20484;-66
2021/12/13 09:28:46;;;;;;;29.65;14.73;;;;;;;;;;5051719;28;20125;-61
2021/12/13 09:31:33;;;;;;;;;;;;;;;;;;5052945;28;20021;-65
2021/12/13 09:34:21;;;;;;;20.13;10.70;;;;;;;;;;5052338;28;19923;-64
2021/12/13 09:36:51;;;;;;;34.72;13.77;;;;;;;;;;5052676;28;20565;-63
2021/12/13 09:39:26;;;;;;;34.30;12.93;;;;;;;;;;5052508;28;20021;-61
2021/12/13 09:41:58;;;;;;;30.38;12.90;;;;;;;;;;5052495;28;20053;-65
2021/12/13 09:44:32;;;;;;;25.15;12.07;;;;;;;;;;5052517;28;20045;-63
2021/12/13 09:47:17;;;;;;;25.73;12.98;;;;;;;;;;5052612;28;20031;-65
2021/12/13 09:49:54;;;;;;;26.70;14.73;;;;;;;;;;5050969;28;20031;-64
2021/12/13 09:52:38;;;;;;;27.17;15.13;;;;;;;;;;5049554;28;20031;-65
2021/12/13 09:55:15;;;;;;;25.00;12.60;;;;;;;;;;5052437;28;20044;-63
2021/12/13 09:57:53;;;;;;;26.48;13.18;;;;;;;;;;5051617;28;20052;-64
2021/12/13 10:00:41;;;;;;;22.65;11.82;;;;;;;;;;5055216;28;20041;-64
2021/12/13 10:03:24;;;;;;;26.85;12.43;;;;;;;;;;5052409;28;20451;-64
2021/12/13 10:05:54;;;;;;;30.50;13.30;;;;;;;;;;5052735;28;20078;-64
2021/12/13 10:08:43;;;;;;;26.40;13.85;;;;;;;;;;5052293;28;20074;-65
2021/12/13 10:11:17;;;;;;;31.40;16.15;;;;;;;;;;5052502;28;20033;-64
2021/12/13 10:13:43;;;;;;;37.08;15.85;;;;;;;;;;5052200;28;20075;-63
2021/12/13 10:16:13;;;;;;;32.75;16.80;;;;;;;;;;5052448;28;20040;-62
2021/12/13 10:18:41;;;;;;;34.30;14.82;;;;;;;;;;5052418;28;20097;-62
2021/12/13 10:21:16;;;;;;;26.08;13.50;;;;;;;;;;5052012;28;20488;-66
2021/12/13 10:23:50;;;;;;;24.45;11.68;;;;;;;;;;5052210;28;20078;-64
2021/12/13 10:26:17;;;;;;;25.33;11.93;;;;;;;;;;5050043;28;20036;-66
2021/12/13 10:28:53;;;;;;;24.75;12.07;;;;;;;;;;5051806;28;20025;-65
2021/12/13 10:31:27;;;;;;;30.92;11.48;;;;;;;;;;5051839;28;20167;-65
2021/12/13 10:33:54;;;;;;;23.73;11.68;;;;;;;;;;5052000;28;20494;-65
2021/12/13 10:36:20;;;;;;;28.35;11.65;;;;;;;;;;5051938;28;20033;-65
2021/12/13 10:38:51;;;;;;;24.10;11.18;;;;;;;;;;5052244;28;20017;-66
2021/12/13 10:41:29;;;;;;;24.38;11.45;;;;;;;;;;5050091;28;20049;-64
2021/12/13 10:44:05;;;;;;;27.85;12.10;;;;;;;;;;5047631;28;20033;-65
2021/12/13 10:46:52;;;;;;;25.60;11.38;;;;;;;;;;5049640;28;20437;-65
2021/12/13 10:49:23;;;;;;;21.23;9.88;;;;;;;;;;5055616;28;20130;-64
2021/12/13 10:51:59;;;;;;;22.52;10.10;;;;;;;;;;5051614;28;20036;-65
2021/12/13 10:54:33;;;;;;;19.38;9.40;;;;;;;;;;5051811;28;20036;-68
2021/12/13 10:57:22;;;;;;;20.35;10.40;;;;;;;;;;5051802;28;20029;-63
2021/12/13 10:59:49;;;;;;;17.73;8.85;;;;;;;;;;5041320;28;20021;-66
2021/12/13 11:02:23;;;;;;;17.90;9.50;;;;;;;;;;5051597;28;20025;-61
2021/12/13 11:05:00;;;;;;;18.15;10.02;;;;;;;;;;5042327;28;20086;-65
2021/12/13 11:07:26;;;;;;;16.25;8.63;;;;;;;;;;5051550;28;20095;-65
2021/12/13 11:09:54;;;;;;;18.13;9.25;;;;;;;;;;5052362;28;20468;-65
2021/12/13 11:12:38;;;;;;;17.77;9.55;;;;;;;;;;5054483;28;20653;-65
2021/12/13 11:15:26;;;;;;;14.43;8.30;;;;;;;;;;5054027;28;20052;-64
2021/12/13 11:17:54;;;;;;;14.52;8.48;;;;;;;;;;5055634;28;20032;-61
2021/12/13 11:20:27;;;;;;;16.67;9.73;;;;;;;;;;5054879;28;20025;-64
2021/12/13 11:22:54;;;;;;;17.13;9.75;;;;;;;;;;5055341;28;20027;-65
2021/12/13 11:25:39;;;;;;;22.67;13.95;;;;;;;;;;5055041;28;20575;-64
2021/12/13 11:28:07;;;;;;;23.45;12.85;;;;;;;;;;5055191;28;20057;-63
2021/12/13 11:30:35;;;;;;;22.88;12.27;;;;;;;;;;5055201;28;20021;-65
2021/12/13 11:33:10;;;;;;;27.15;13.05;;;;;;;;;;5054208;28;20021;-63
2021/12/13 11:36:07;;;;;;;33.33;11.57;;;;;;;;;;5054802;28;20071;-65
2021/12/13 11:39:09;;;;;;;23.73;12.65;;;;;;;;;;5054840;28;20033;-61
2021/12/13 11:41:58;;;;;;;22.63;11.57;;;;;;;;;;5054668;28;20053;-64
2021/12/13 11:44:33;;;;;;;24.35;10.80;;;;;;;;;;5051750;28;20392;-66
2021/12/13 11:47:26;;;;;;;30.95;10.07;;;;;;;;;;5053994;28;20025;-66
2021/12/13 11:49:57;;;;;;;20.77;8.90;;;;;;;;;;5054390;28;20455;-65
2021/12/13 11:53:03;;;;;;;20.15;8.60;;;;;;;;;;5054523;28;20025;-65
2021/12/13 11:55:58;;;;;;;16.77;8.02;;;;;;;;;;5051891;28;20041;-65
2021/12/13 11:59:00;;;;;;;16.88;7.65;;;;;;;;;;5048064;28;20134;-64
2021/12/13 12:02:03;;;;;;;20.02;7.30;;;;;;;;;;5007088;28;20061;-61
2021/12/13 12:05:06;;;;;;;18.38;8.23;;;;;;;;;;5010925;28;21452;-65
2021/12/13 12:08:08;;;;;;;24.73;8.75;;;;;;;;;;5012258;28;20183;-64
2021/12/13 12:11:07;;;;;;;22.52;9.43;;;;;;;;;;5012271;28;20040;-65
2021/12/13 12:13:50;;;;;;;16.65;8.30;;;;;;;;;;5003849;28;20390;-62
2021/12/13 12:16:20;;;;;;;16.83;7.65;;;;;;;;;;5012434;28;20030;-65
2021/12/13 12:18:46;;;;;;;21.90;8.15;;;;;;;;;;5011950;28;20029;-65
2021/12/13 12:21:38;;;;;;;16.42;7.38;;;;;;;;;;5012684;28;20117;-61
2021/12/13 12:24:15;;;;;;;26.25;7.97;;;;;;;;;;5010867;28;20030;-65
2021/12/13 12:26:45;;;;;;;18.48;7.65;;;;;;;;;;5012360;28;20466;-65
2021/12/13 12:29:17;;;;;;;20.30;7.57;;;;;;;;;;5011826;28;20488;-65
2021/12/13 12:31:47;;;;;;;22.27;7.47;;;;;;;;;;5011723;28;20030;-60
2021/12/13 12:34:13;;;;;;;24.08;7.78;;;;;;;;;;5012049;28;20034;-66
2021/12/13 12:36:56;;;;;;;16.55;6.82;;;;;;;;;;5011933;28;20034;-63
2021/12/13 12:39:54;;;;;;;16.58;6.95;;;;;;;;;;5053051;28;20479;-62
2021/12/13 12:42:23;;;;;;;19.63;6.50;;;;;;;;;;5053763;28;20037;-66
2021/12/13 12:44:54;;;;;;;22.75;8.65;;;;;;;;;;5053465;28;20361;-65
2021/12/13 12:47:50;;;;;;;26.27;10.50;;;;;;;;;;5053441;28;20025;-65
2021/12/13 12:50:23;;;;;;;24.25;11.60;;;;;;;;;;5053714;28;20060;-64
2021/12/13 12:52:57;;;;;;;31.00;14.10;;;;;;;;;;5053530;28;20087;-62
2021/12/13 12:55:30;;;;;;;28.02;10.80;;;;;;;;;;5053304;28;20025;-63
2021/12/13 12:57:58;;;;;;;21.90;9.13;;;;;;;;;;5053311;28;20067;-65
2021/12/13 13:00:26;;;;;;;24.73;9.05;;;;;;;;;;5051858;28;20021;-63
2021/12/13 13:02:52;;;;;;;19.63;8.48;;;;;;;;;;5042386;28;20564;-63
2021/12/13 13:05:22;;;;;;;21.67;8.00;;;;;;;;;;5055792;28;20063;-62
2021/12/13 13:07:50;;;;;;;24.67;8.48;;;;;;;;;;5045816;28;20040;-65
2021/12/13 13:13:06;;;;;;;30.08;10.65;;;;;;;;;;5054000;28;20043;-66
2021/12/13 13:15:39;;;;;;;37.15;13.25;;;;;;;;;;5058764;28;20033;-62
2021/12/13 13:18:12;;;;;;;32.83;10.10;;;;;;;;;;5047991;28;20108;-66
2021/12/13 13:20:51;;;;;;;20.95;8.27;;;;;;;;;;5052636;28;20488;-66
2021/12/13 13:23:19;;;;;;;23.15;9.45;;;;;;;;;;5051247;28;20033;-65
2021/12/13 13:25:55;;;;;;;33.25;9.05;;;;;;;;;;5061549;28;20039;-64
2021/12/13 13:28:28;;;;;;;27.23;9.30;;;;;;;;;;5051414;28;20043;-65
2021/12/13 13:31:23;;;;;;;35.83;16.40;;;;;;;;;;5043164;28;20029;-65
2021/12/13 13:33:53;;;;;;;20.00;8.82;;;;;;;;;;5051849;28;20159;-66
2021/12/13 13:36:28;;;;;;;31.60;10.67;;;;;;;;;;5051418;28;20037;-66
2021/12/13 13:39:09;;;;;;;50.03;20.45;;;;;;;;;;5052373;28;20266;-66
2021/12/13 13:41:36;;;;;;;35.80;11.88;;;;;;;;;;5048705;28;20060;-65
2021/12/13 13:44:11;;;;;;;26.48;12.23;;;;;;;;;;5052174;28;20563;-66
2021/12/13 13:46:41;;;;;;;31.70;11.10;;;;;;;;;;5052614;28;20024;-66
2021/12/13 13:49:07;;;;;;;26.38;11.20;;;;;;;;;;5052727;28;20025;-66
2021/12/13 13:51:35;;;;;;;37.30;10.43;;;;;;;;;;5044219;28;20381;-66
2021/12/13 13:54:01;;;;;;;30.02;10.30;;;;;;;;;;5058089;28;20138;-65
2021/12/13 13:56:32;;;;;;;35.92;11.18;;;;;;;;;;5051794;28;20040;-64
2021/12/13 13:59:09;;;;;;;34.42;12.00;;;;;;;;;;5045389;28;20048;-64
2021/12/13 14:02:01;;;;;;;30.83;12.30;;;;;;;;;;5055863;28;20412;-65
2021/12/13 14:04:40;;;;;;;25.27;12.10;;;;;;;;;;5046900;28;20052;-65
2021/12/13 14:07:16;;;;;;;22.30;9.77;;;;;;;;;;5046987;28;20502;-66
2021/12/13 14:09:52;;;;;;;20.80;9.07;;;;;;;;;;5057026;28;20539;-65
2021/12/13 14:12:35;;;;;;;22.80;10.02;;;;;;;;;;5056198;28;20163;-65
2021/12/13 14:15:24;;;;;;;23.80;8.55;;;;;;;;;;5042807;28;20068;-65
2021/12/13 14:17:56;;;;;;;23.65;10.23;;;;;;;;;;5042451;28;20376;-64
2021/12/13 14:20:45;;;;;;;24.42;10.55;;;;;;;;;;5050929;28;20036;-65
2021/12/13 14:23:14;;;;;;;24.10;9.70;;;;;;;;;;5044044;28;20463;-63
2021/12/13 14:25:42;;;;;;;21.08;9.70;;;;;;;;;;5059824;28;20024;-65
2021/12/13 14:28:09;;;;;;;22.20;8.60;;;;;;;;;;5049179;28;20505;-65
2021/12/13 14:30:48;;;;;;;16.67;7.60;;;;;;;;;;5051830;28;20383;-62
2021/12/13 14:33:28;;;;;;;30.05;10.35;;;;;;;;;;5049924;28;20029;-59
2021/12/13 14:36:02;;;;;;;19.67;9.07;;;;;;;;;;5051481;28;20531;-65
2021/12/13 14:38:29;;;;;;;20.35;10.85;;;;;;;;;;5051966;28;20025;-65
2021/12/13 14:40:57;;;;;;;20.70;10.40;;;;;;;;;;5051800;28;20052;-62
2021/12/13 14:43:27;;;;;;;24.02;9.43;;;;;;;;;;5051128;28;20082;-64
2021/12/13 14:45:54;;;;;;;20.77;10.20;;;;;;;;;;5052376;28;20064;-64
2021/12/13 14:48:25;;;;;;;21.42;10.20;;;;;;;;;;5055723;28;20025;-63
2021/12/13 14:50:56;;;;;;;19.05;9.85;;;;;;;;;;5055773;28;20504;-64
2021/12/13 14:53:26;;;;;;;27.23;11.65;;;;;;;;;;5055916;28;20036;-64
2021/12/13 14:55:53;;;;;;;;;;;;;;;;;;5056207;28;20028;-64
2021/12/13 14:58:22;;;;;;;25.90;12.23;;;;;;;;;;5055255;28;19912;-65
2021/12/13 15:00:59;;;;;;;31.60;13.70;;;;;;;;;;5054437;28;20143;-64
2021/12/13 15:03:26;;;;;;;24.65;11.00;;;;;;;;;;5054398;28;20025;-64
2021/12/13 15:05:57;;;;;;;20.25;9.63;;;;;;;;;;5055771;28;20027;-67
2021/12/13 15:08:23;;;;;;;;;;;;;;;;;;5056700;28;20025;-66
2021/12/13 15:10:54;;;;;;;32.00;16.90;;;;;;;;;;5055705;28;20015;-66
2021/12/13 15:13:22;;;;;;;18.70;8.82;;;;;;;;;;5055166;28;20029;-66
2021/12/13 15:16:15;;;;;;;16.70;8.18;;;;;;;;;;5055514;28;20060;-65
2021/12/13 15:18:45;;;;;;;18.50;7.32;;;;;;;;;;5052142;28;20094;-66
2021/12/13 15:21:22;;;;;;;18.67;7.45;;;;;;;;;;5055429;28;20035;-64